createdAt,value
2023-05-20T00:03:20.147Z,43.90
2023-05-20T00:08:23.022Z,44.11
2023-05-20T00:13:27.248Z,44.23
2023-05-20T00:18:30.038Z,43.98
2023-05-20T00:23:32.809Z,44.01
2023-05-20T00:28:36.999Z,44.00
2023-05-20T00:33:39.802Z,44.25
2023-05-20T00:38:42.618Z,44.19
2023-05-20T00:43:46.800Z,44.34
2023-05-20T00:48:49.600Z,44.48
2023-05-20T00:53:52.386Z,44.38
2023-05-20T00:58:56.627Z,44.49
2023-05-20T01:03:59.831Z,44.78
2023-05-20T01:09:02.605Z,44.79
2023-05-20T01:14:08.096Z,44.73
2023-05-20T01:19:15.657Z,44.87
2023-05-20T01:24:19.934Z,44.77
2023-05-20T01:29:22.769Z,44.86
2023-05-20T01:34:25.609Z,44.91
2023-05-20T01:39:29.752Z,45.02
2023-05-20T01:44:32.633Z,45.30
2023-05-20T01:49:35.489Z,45.43
2023-05-20T01:54:39.636Z,45.56
2023-05-20T01:59:42.455Z,45.69
2023-05-20T02:04:47.990Z,45.65
2023-05-20T02:09:52.184Z,45.76
2023-05-20T02:14:55.465Z,45.88
2023-05-20T02:19:58.461Z,45.94
2023-05-20T02:25:04.400Z,45.96
2023-05-20T02:30:09.017Z,46.35
2023-05-20T02:35:11.848Z,46.15
2023-05-20T02:40:16.069Z,46.51
2023-05-20T02:45:19.036Z,46.43
2023-05-20T02:50:22.108Z,46.47
2023-05-20T02:55:26.253Z,46.78
2023-05-20T03:00:30.487Z,46.87
2023-05-20T03:05:33.464Z,46.84
2023-05-20T03:10:37.836Z,46.90
2023-05-20T03:15:41.790Z,47.03
2023-05-20T03:20:44.566Z,47.26
2023-05-20T03:25:49.244Z,47.30
2023-05-20T03:30:52.623Z,47.18
2023-05-20T03:35:55.469Z,47.56
2023-05-20T03:40:59.776Z,47.72
2023-05-20T03:46:02.707Z,47.77
2023-05-20T03:51:05.673Z,47.74
2023-05-20T03:56:10.591Z,47.88
2023-05-20T04:01:15.329Z,47.87
2023-05-20T04:06:18.277Z,48.07
2023-05-20T04:11:22.968Z,48.13
2023-05-20T04:16:26.002Z,48.39
2023-05-20T04:21:28.928Z,48.30
2023-05-20T04:26:33.699Z,48.10
2023-05-20T04:31:36.661Z,48.15
2023-05-20T04:36:39.928Z,48.48
2023-05-20T04:41:45.118Z,48.43
2023-05-20T04:46:48.710Z,48.55
2023-05-20T04:51:51.926Z,48.53
2023-05-20T04:56:56.606Z,48.47
2023-05-20T05:01:59.465Z,48.29
2023-05-20T05:07:02.395Z,48.29
2023-05-20T05:12:07.362Z,48.21
2023-05-20T05:17:10.167Z,48.00
2023-05-20T05:22:13.127Z,47.92
2023-05-20T05:27:17.898Z,47.74
2023-05-20T05:32:20.804Z,47.68
2023-05-20T05:37:24.079Z,47.80
2023-05-20T05:42:29.309Z,47.70
2023-05-20T05:47:32.922Z,47.91
2023-05-20T05:52:36.602Z,47.83
2023-05-20T05:57:42.133Z,47.74
2023-05-20T06:02:45.743Z,47.66
2023-05-20T06:07:53.708Z,47.81
2023-05-20T06:12:58.231Z,47.78
2023-05-20T06:18:02.185Z,47.65
2023-05-20T06:23:05.367Z,47.63
2023-05-20T06:28:18.579Z,47.50
2023-05-20T06:33:21.575Z,47.27
2023-05-20T06:38:24.514Z,47.19
2023-05-20T06:43:28.864Z,46.95
2023-05-20T06:48:45.427Z,46.62
2023-05-20T06:53:48.535Z,46.42
2023-05-20T06:58:53.163Z,46.20
2023-05-20T07:03:56.220Z,46.42
2023-05-20T07:09:00.971Z,45.50
2023-05-20T07:14:05.571Z,45.06
2023-05-20T07:19:09.010Z,44.50
2023-05-20T07:24:11.964Z,43.94
2023-05-20T07:29:16.387Z,42.62
2023-05-20T07:34:20.632Z,42.24
2023-05-20T07:39:23.697Z,42.17
2023-05-20T07:44:28.032Z,42.15
2023-05-20T07:49:31.418Z,42.12
2023-05-20T07:54:35.750Z,41.78
2023-05-20T07:59:41.207Z,41.45
2023-05-20T08:04:44.413Z,41.29
2023-05-20T08:09:49.801Z,41.51
2023-05-20T08:14:54.927Z,41.37
2023-05-20T08:19:57.891Z,41.83
2023-05-20T08:25:00.900Z,42.13
2023-05-20T08:30:05.590Z,42.25
2023-05-20T08:35:09.272Z,42.22
2023-05-20T08:40:13.539Z,42.17
2023-05-20T08:45:20.428Z,42.24
2023-05-20T08:50:24.889Z,41.88
2023-05-20T08:55:30.297Z,42.36
2023-05-20T09:00:34.856Z,42.53
2023-05-20T09:05:37.749Z,42.59
2023-05-20T09:10:41.160Z,42.61
2023-05-20T09:15:45.469Z,42.78
2023-05-20T09:20:52.874Z,42.82
2023-05-20T09:25:55.724Z,42.49
2023-05-20T09:31:00.667Z,42.32
2023-05-20T09:36:04.961Z,42.08
2023-05-20T09:41:09.222Z,42.08
2023-05-20T09:46:13.656Z,42.74
2023-05-20T09:51:16.703Z,42.87
2023-05-20T09:56:20.027Z,43.78
2023-05-20T10:01:24.261Z,43.52
2023-05-20T10:06:39.245Z,42.88
2023-05-20T10:11:48.372Z,43.63
2023-05-20T10:16:54.500Z,43.28
2023-05-20T10:21:59.020Z,44.15
2023-05-20T10:27:03.328Z,44.11
2023-05-20T10:32:08.352Z,44.67
2023-05-20T10:37:11.224Z,44.18
2023-05-20T10:42:14.066Z,44.94
2023-05-20T10:47:25.527Z,44.76
2023-05-20T10:52:29.297Z,44.46
2023-05-20T10:57:32.326Z,44.74
2023-05-20T11:02:36.801Z,45.02
2023-05-20T11:07:40.380Z,45.29
2023-05-20T11:12:43.418Z,45.35
2023-05-20T11:17:55.229Z,45.91
2023-05-20T11:22:58.174Z,45.97
2023-05-20T11:28:01.022Z,45.55
2023-05-20T11:33:05.468Z,46.70
2023-05-20T11:38:09.359Z,46.53
2023-05-20T11:43:12.696Z,44.87
2023-05-20T11:48:16.909Z,43.85
2023-05-20T11:53:20.468Z,43.94
2023-05-20T11:58:23.934Z,45.06
2023-05-20T12:03:28.301Z,46.07
2023-05-20T12:08:31.180Z,44.49
2023-05-20T12:13:35.405Z,44.46
2023-05-20T12:18:40.106Z,44.53
2023-05-20T12:23:42.979Z,44.07
2023-05-20T12:28:45.885Z,44.50
2023-05-20T12:33:50.145Z,44.84
2023-05-20T12:38:53.112Z,43.80
2023-05-20T12:43:56.148Z,43.51
2023-05-20T12:49:00.382Z,43.63
2023-05-20T12:54:03.203Z,43.79
2023-05-20T12:59:06.229Z,43.68
2023-05-20T13:04:10.985Z,44.97
2023-05-20T13:09:13.964Z,46.63
2023-05-20T13:14:17.499Z,46.68
2023-05-20T13:19:22.034Z,46.73
2023-05-20T13:24:24.917Z,46.29
2023-05-20T13:29:27.947Z,47.64
2023-05-20T13:34:32.623Z,45.38
2023-05-20T13:39:36.339Z,44.54
2023-05-20T13:44:39.243Z,55.31
2023-05-20T13:49:43.367Z,44.20
2023-05-20T14:02:38.987Z,43.96
2023-05-20T14:07:41.930Z,43.60
2023-05-20T14:12:47.971Z,43.48
2023-05-20T14:17:52.802Z,44.09
2023-05-20T14:22:55.787Z,43.70
2023-05-20T14:27:58.597Z,43.38
2023-05-20T14:33:02.913Z,43.02
2023-05-20T14:38:05.809Z,42.98
2023-05-20T14:43:08.681Z,42.42
2023-05-20T14:48:12.958Z,42.09
2023-05-20T14:53:15.899Z,41.78
2023-05-20T14:58:18.847Z,41.69
2023-05-20T15:03:24.428Z,41.04
2023-05-20T15:08:27.420Z,40.47
2023-05-20T15:13:30.321Z,40.01
2023-05-20T15:18:34.564Z,39.94
2023-05-20T15:23:37.523Z,40.00
2023-05-20T15:28:40.439Z,40.32
2023-05-20T15:33:44.710Z,40.52
2023-05-20T15:38:47.602Z,40.20
2023-05-20T15:43:51.107Z,39.85
2023-05-20T15:48:57.919Z,40.26
2023-05-20T15:54:01.070Z,40.10
2023-05-20T15:59:03.955Z,41.78
2023-05-20T16:04:08.360Z,41.19
2023-05-20T16:09:11.308Z,41.44
2023-05-20T16:14:14.164Z,42.51
2023-05-20T16:19:18.429Z,43.03
2023-05-20T16:24:21.519Z,43.22
2023-05-20T16:29:24.449Z,43.19
2023-05-20T16:34:28.751Z,43.25
2023-05-20T16:39:31.676Z,43.23
2023-05-20T16:44:38.553Z,42.28
2023-05-20T16:49:42.712Z,42.25
2023-05-20T16:54:45.930Z,42.51
2023-05-20T16:59:49.445Z,42.58
2023-05-20T17:04:53.722Z,43.59
2023-05-20T17:09:56.534Z,43.34
2023-05-20T17:14:59.490Z,43.03
2023-05-20T17:20:05.327Z,42.67
2023-05-20T17:25:08.984Z,42.99
2023-05-20T17:30:12.840Z,43.30
2023-05-20T17:35:17.277Z,43.10
2023-05-20T17:40:20.437Z,43.23
2023-05-20T17:45:23.478Z,43.41
2023-05-20T17:50:27.791Z,43.64
2023-05-20T17:55:32.459Z,44.35
2023-05-20T18:00:42.324Z,44.35
2023-05-20T18:05:46.680Z,44.17
2023-05-20T18:10:49.710Z,44.32
2023-05-20T18:15:53.163Z,44.69
2023-05-20T18:20:57.882Z,45.32
2023-05-20T18:26:00.742Z,45.66
2023-05-20T18:31:03.585Z,45.68
2023-05-20T18:36:08.741Z,45.77
2023-05-20T18:41:11.585Z,45.80
2023-05-20T18:46:17.150Z,45.72
2023-05-20T18:51:21.603Z,45.81
2023-05-20T18:56:24.460Z,45.88
2023-05-20T19:01:28.562Z,45.94
2023-05-20T19:06:35.282Z,45.88
2023-05-20T19:11:38.449Z,46.14
2023-05-20T19:16:41.349Z,46.09
2023-05-20T19:21:46.156Z,45.89
2023-05-20T19:26:51.628Z,46.03
2023-05-20T19:31:54.545Z,46.48
2023-05-20T19:36:58.837Z,46.03
2023-05-20T19:42:01.722Z,46.31
2023-05-20T19:47:05.588Z,46.28
2023-05-20T19:52:09.851Z,46.39
2023-05-20T19:57:12.671Z,46.39
2023-05-20T20:02:15.808Z,46.35
2023-05-20T20:07:20.593Z,46.45
2023-05-20T20:12:23.579Z,46.17
2023-05-20T20:17:26.566Z,46.47
2023-05-20T20:22:30.986Z,46.62
2023-05-20T20:27:33.888Z,46.27
2023-05-20T20:32:37.829Z,46.36
2023-05-20T20:37:42.373Z,46.32
2023-05-20T20:42:48.364Z,46.42
2023-05-20T20:47:54.861Z,46.03
2023-05-20T20:52:59.156Z,46.39
2023-05-20T20:58:03.345Z,46.48
2023-05-20T21:03:07.846Z,46.36
2023-05-20T21:08:13.221Z,46.39
2023-05-20T21:13:16.226Z,46.33
2023-05-20T21:18:21.741Z,46.46
2023-05-20T21:23:25.963Z,46.41
2023-05-20T21:28:28.769Z,46.60
2023-05-20T21:33:31.691Z,46.63
2023-05-20T21:38:35.879Z,46.68
2023-05-20T21:43:38.758Z,46.73
2023-05-20T21:48:41.615Z,46.74
2023-05-20T21:53:46.006Z,46.79
2023-05-20T21:58:48.849Z,46.75
2023-05-20T22:03:51.988Z,46.84
2023-05-20T22:08:56.237Z,46.88
2023-05-20T22:13:59.666Z,46.96
2023-05-20T22:19:03.280Z,47.05
2023-05-20T22:24:07.938Z,47.07
2023-05-20T22:29:10.761Z,46.85
2023-05-20T22:34:13.671Z,47.03
2023-05-20T22:39:18.054Z,47.00
2023-05-20T22:44:20.930Z,47.12
2023-05-20T22:49:25.102Z,46.95
2023-05-20T22:54:29.455Z,47.16
2023-05-20T22:59:32.689Z,46.92
2023-05-20T23:04:35.576Z,46.84
2023-05-20T23:09:39.875Z,47.06
2023-05-20T23:14:42.835Z,46.92
2023-05-20T23:19:45.656Z,46.76
2023-05-20T23:24:49.914Z,46.86
2023-05-20T23:29:52.756Z,46.95
2023-05-20T23:34:55.640Z,46.70
2023-05-20T23:39:59.813Z,46.83
2023-05-20T23:45:02.745Z,46.80
2023-05-20T23:50:06.160Z,46.71
2023-05-20T23:55:14.294Z,46.75
